Time,TemperatureF,DewpointF,PressureIn,WindDirection,WindDirectionDegrees,WindSpeedMPH,WindSpeedGustMPH,Humidity,HourlyPrecipIn,Conditions,Clouds,dailyrainin,SolarRadiationWatts/m^2,SoftwareType,DateUTC
2013-07-20 00:01:00,64.0,64.0,-100.00,NNW,339,0.0,0.0,100,0.00,,,0.20,0.000000,,2013-07-20 07:01:00,
2013-07-20 00:33:00,62.0,62.0,-100.00,North,359,0.0,0.0,100,0.00,,,0.20,0.000000,,2013-07-20 07:33:00,
2013-07-20 00:44:00,62.0,62.0,-100.00,North,359,0.0,0.0,100,0.00,,,0.20,0.000000,,2013-07-20 07:44:00,
2013-07-20 00:54:00,62.0,62.0,-100.00,North,359,0.0,0.0,100,0.00,,,0.20,0.000000,,2013-07-20 07:54:00,
2013-07-20 01:01:00,62.0,62.0,-100.00,North,359,0.0,0.0,100,0.00,,,0.20,0.000000,,2013-07-20 08:01:00,
2013-07-20 01:32:00,64.0,64.0,-100.00,North,354,0.0,0.0,100,0.00,,,0.20,0.000000,,2013-07-20 08:32:00,
2013-07-20 01:44:00,64.0,64.0,-100.00,North,354,0.0,0.0,100,0.00,,,0.20,0.000000,,2013-07-20 08:44:00,
2013-07-20 01:52:00,64.0,64.0,-100.00,North,354,0.0,0.0,100,0.00,,,0.20,0.000000,,2013-07-20 08:52:00,
2013-07-20 02:01:00,64.0,64.0,-100.00,North,354,0.0,0.0,100,0.00,,,0.20,0.000000,,2013-07-20 09:01:00,
2013-07-20 02:33:00,62.0,62.0,-100.00,NNW,331,0.0,0.0,100,0.00,,,0.20,0.000000,,2013-07-20 09:33:00,
2013-07-20 02:43:00,62.0,62.0,-100.00,NNW,331,0.0,0.0,100,0.00,,,0.20,0.000000,,2013-07-20 09:43:00,
2013-07-20 02:53:00,62.0,62.0,-100.00,NNW,331,0.0,0.0,100,0.00,,,0.20,0.000000,,2013-07-20 09:53:00,
2013-07-20 03:01:00,62.0,62.0,-100.00,NNW,331,0.0,0.0,100,0.00,,,0.20,0.000000,,2013-07-20 10:01:00,
2013-07-20 03:32:00,61.0,61.0,-100.00,North,350,0.0,0.0,100,0.00,,,0.20,0.000000,,2013-07-20 10:32:00,
2013-07-20 03:42:00,61.0,61.0,-100.00,North,350,0.0,0.0,100,0.00,,,0.20,0.000000,,2013-07-20 10:42:00,
2013-07-20 03:52:00,61.0,61.0,-100.00,North,350,0.0,0.0,100,0.00,,,0.20,0.000000,,2013-07-20 10:52:00,
2013-07-20 04:01:00,61.0,61.0,-100.00,North,350,0.0,0.0,100,0.00,,,0.20,0.000000,,2013-07-20 11:01:00,
2013-07-20 04:22:00,61.0,61.0,-100.00,North,6,0.0,0.0,100,0.00,,,0.20,0.000000,,2013-07-20 11:22:00,
2013-07-20 04:32:00,61.0,61.0,-100.00,North,6,0.0,0.0,100,0.00,,,0.20,0.000000,,2013-07-20 11:32:00,
2013-07-20 04:43:00,61.0,61.0,-100.00,North,6,0.0,0.0,100,0.00,,,0.20,0.000000,,2013-07-20 11:43:00,
2013-07-20 04:52:00,61.0,61.0,-100.00,North,6,0.0,0.0,100,0.00,,,0.20,0.000000,,2013-07-20 11:52:00,
2013-07-20 05:01:00,61.0,61.0,-100.00,North,6,0.0,0.0,100,0.00,,,0.20,0.000000,,2013-07-20 12:01:00,
2013-07-20 05:32:00,63.0,60.0,-100.00,North,350,0.0,0.0,89,0.00,,,0.20,0.000000,,2013-07-20 12:32:00,
2013-07-20 05:52:00,63.0,60.0,-100.00,North,350,0.0,0.0,89,0.00,,,0.20,0.000000,,2013-07-20 12:52:00,
2013-07-20 06:01:00,63.0,60.0,-100.00,North,350,0.0,0.0,89,0.00,,,0.20,0.000000,,2013-07-20 13:01:00,
2013-07-20 06:23:00,63.0,62.0,-100.00,NNW,346,0.0,0.0,98,0.00,,,0.20,11.000000,,2013-07-20 13:23:00,
2013-07-20 06:32:00,63.0,62.0,-100.00,NNW,346,0.0,0.0,98,0.00,,,0.20,11.000000,,2013-07-20 13:32:00,
2013-07-20 06:43:00,63.0,62.0,-100.00,NNW,346,0.0,0.0,98,0.00,,,0.20,11.000000,,2013-07-20 13:43:00,
2013-07-20 06:53:00,63.0,62.0,-100.00,NNW,346,0.0,0.0,98,0.00,,,0.20,11.000000,,2013-07-20 13:53:00,
2013-07-20 07:02:00,63.0,62.0,-100.00,NNW,346,0.0,0.0,98,0.00,,,0.20,11.000000,,2013-07-20 14:02:00,
2013-07-20 07:32:00,65.0,59.0,-100.00,North,356,0.0,0.0,82,0.00,,,0.20,55.000000,,2013-07-20 14:32:00,
2013-07-20 07:43:00,65.0,59.0,-100.00,North,356,0.0,0.0,82,0.00,,,0.20,55.000000,,2013-07-20 14:43:00,
2013-07-20 07:53:00,65.0,59.0,-100.00,North,356,0.0,0.0,82,0.00,,,0.20,55.000000,,2013-07-20 14:53:00,
2013-07-20 08:01:00,65.0,59.0,-100.00,North,356,0.0,0.0,82,0.00,,,0.20,55.000000,,2013-07-20 15:01:00,
2013-07-20 08:33:00,69.0,59.0,-100.00,North,11,0.0,0.0,70,0.00,,,0.20,119.000000,,2013-07-20 15:33:00,
2013-07-20 08:44:00,69.0,59.0,-100.00,North,11,0.0,0.0,70,0.00,,,0.20,119.000000,,2013-07-20 15:44:00,
2013-07-20 08:53:00,69.0,59.0,-100.00,North,11,0.0,0.0,70,0.00,,,0.20,119.000000,,2013-07-20 15:53:00,
2013-07-20 09:01:00,69.0,59.0,-100.00,North,11,0.0,0.0,70,0.00,,,0.20,119.000000,,2013-07-20 16:01:00,
2013-07-20 09:32:00,73.0,57.0,-100.00,ESE,122,0.0,0.0,58,0.00,,,0.20,279.000000,,2013-07-20 16:32:00,
2013-07-20 09:43:00,73.0,57.0,-100.00,ESE,122,0.0,0.0,58,0.00,,,0.20,279.000000,,2013-07-20 16:43:00,
2013-07-20 09:52:00,73.0,57.0,-100.00,ESE,122,0.0,0.0,58,0.00,,,0.20,279.000000,,2013-07-20 16:52:00,
2013-07-20 10:02:00,73.0,57.0,-100.00,ESE,122,0.0,0.0,58,0.00,,,0.20,279.000000,,2013-07-20 17:02:00,
2013-07-20 10:32:00,81.0,59.0,-100.00,SE,131,0.0,0.0,48,0.00,,,0.20,550.000000,,2013-07-20 17:32:00,
2013-07-20 10:43:00,81.0,59.0,-100.00,SE,131,0.0,0.0,48,0.00,,,0.20,550.000000,,2013-07-20 17:43:00,
2013-07-20 10:53:00,81.0,59.0,-100.00,SE,131,0.0,0.0,48,0.00,,,0.20,550.000000,,2013-07-20 17:53:00,
2013-07-20 11:01:00,81.0,59.0,-100.00,SE,131,0.0,0.0,48,0.00,,,0.20,550.000000,,2013-07-20 18:01:00,
2013-07-20 11:36:00,85.0,61.0,-100.00,SSE,155,0.0,0.0,44,0.00,,,-99.99,827.000000,,2013-07-20 18:36:00,
2013-07-20 11:47:00,85.0,61.0,-100.00,SSE,155,0.0,0.0,44,0.00,,,-99.99,827.000000,,2013-07-20 18:47:00,
2013-07-20 11:57:00,85.0,61.0,-100.00,SSE,155,0.0,0.0,44,0.00,,,-99.99,827.000000,,2013-07-20 18:57:00,
2013-07-20 12:02:00,85.0,61.0,-100.00,SSE,155,0.0,0.0,44,0.00,,,-99.99,827.000000,,2013-07-20 19:02:00,
2013-07-20 12:03:00,84.0,59.0,-100.00,SSE,153,0.0,0.0,43,0.00,,,0.20,876.000000,,2013-07-20 19:03:00,
2013-07-20 12:35:00,84.0,59.0,-100.00,SSE,153,0.0,0.0,43,0.00,,,0.20,876.000000,,2013-07-20 19:35:00,
2013-07-20 12:44:00,84.0,59.0,-100.00,SSE,153,0.0,0.0,43,0.00,,,0.20,876.000000,,2013-07-20 19:44:00,
2013-07-20 12:55:00,84.0,59.0,-100.00,SSE,153,0.0,0.0,43,0.00,,,0.20,876.000000,,2013-07-20 19:55:00,
2013-07-20 13:35:00,81.0,61.0,-100.00,SE,142,0.0,0.0,50,0.00,,,0.20,471.000000,,2013-07-20 20:35:00,
2013-07-20 13:46:00,81.0,61.0,-100.00,SE,142,0.0,0.0,50,0.00,,,0.20,471.000000,,2013-07-20 20:46:00,
2013-07-20 13:56:00,81.0,61.0,-100.00,SE,142,0.0,0.0,50,0.00,,,0.20,471.000000,,2013-07-20 20:56:00,
2013-07-20 14:02:00,81.0,61.0,-100.00,SE,142,0.0,0.0,50,0.00,,,0.20,471.000000,,2013-07-20 21:02:00,
2013-07-20 14:35:00,80.0,63.0,-100.00,SSE,154,0.0,0.0,57,0.00,,,0.20,235.000000,,2013-07-20 21:35:00,
2013-07-20 14:47:00,80.0,63.0,-100.00,SSE,154,0.0,0.0,57,0.00,,,0.20,235.000000,,2013-07-20 21:47:00,
2013-07-20 14:55:00,80.0,63.0,-100.00,SSE,154,0.0,0.0,57,0.00,,,0.20,235.000000,,2013-07-20 21:55:00,
2013-07-20 15:02:00,80.0,63.0,-100.00,SSE,154,0.0,0.0,57,0.00,,,0.20,235.000000,,2013-07-20 22:02:00,
2013-07-20 15:27:00,82.0,61.0,-100.00,SSE,147,0.0,0.0,50,0.00,,,0.20,683.000000,,2013-07-20 22:27:00,
2013-07-20 15:36:00,82.0,61.0,-100.00,SSE,147,0.0,0.0,50,0.00,,,0.20,683.000000,,2013-07-20 22:36:00,
2013-07-20 15:48:00,82.0,61.0,-100.00,SSE,147,0.0,0.0,50,0.00,,,0.20,683.000000,,2013-07-20 22:48:00,
2013-07-20 15:55:00,82.0,61.0,-100.00,SSE,147,0.0,0.0,50,0.00,,,0.20,683.000000,,2013-07-20 22:55:00,
2013-07-20 16:02:00,82.0,61.0,-100.00,SSE,147,0.0,0.0,50,0.00,,,0.20,683.000000,,2013-07-20 23:02:00,
2013-07-20 16:29:00,81.0,61.0,-100.00,SSE,156,0.0,0.0,51,0.00,,,0.10,174.000000,,2013-07-20 23:29:00,
2013-07-20 16:39:00,81.0,61.0,-100.00,SSE,156,0.0,0.0,51,0.00,,,0.10,174.000000,,2013-07-20 23:39:00,
2013-07-20 16:56:00,81.0,61.0,-100.00,SSE,156,0.0,0.0,51,0.00,,,0.10,174.000000,,2013-07-20 23:56:00,
2013-07-20 17:02:00,81.0,61.0,-100.00,SSE,156,0.0,0.0,51,0.00,,,0.10,174.000000,,2013-07-21 00:02:00,
2013-07-20 17:45:00,78.0,60.0,-100.00,SE,145,0.0,0.0,54,0.00,,,0.10,99.000000,,2013-07-21 00:45:00,
2013-07-20 17:55:00,78.0,60.0,-100.00,SE,145,0.0,0.0,54,0.00,,,0.10,99.000000,,2013-07-21 00:55:00,
2013-07-20 18:02:00,78.0,60.0,-100.00,SE,145,0.0,0.0,54,0.00,,,0.10,99.000000,,2013-07-21 01:02:00,
2013-07-20 18:36:00,76.0,62.0,-100.00,SSE,167,0.0,0.0,61,0.00,,,0.10,69.000000,,2013-07-21 01:36:00,
2013-07-20 18:49:00,-999.0,-99.9,-100.00,SSE,167,0.0,0.0,-999,-99.99,,,-99.99,69.000000,,2013-07-21 01:49:00,
2013-07-20 18:58:00,76.0,62.0,-100.00,SSE,167,0.0,0.0,61,0.00,,,0.10,69.000000,,2013-07-21 01:58:00,
2013-07-20 19:37:00,75.0,61.0,-100.00,NNW,344,0.0,0.0,61,0.00,,,0.10,56.000000,,2013-07-21 02:37:00,
2013-07-20 19:56:00,75.0,61.0,-100.00,NNW,344,0.0,0.0,61,0.00,,,0.10,56.000000,,2013-07-21 02:56:00,
2013-07-20 20:02:00,75.0,61.0,-100.00,NNW,344,0.0,0.0,61,0.00,,,0.10,56.000000,,2013-07-21 03:02:00,
2013-07-20 20:46:00,69.0,69.0,-100.00,WNW,292,0.0,0.0,99,0.10,,,0.20,1.000000,,2013-07-21 03:46:00,
2013-07-20 20:57:00,69.0,69.0,-100.00,WNW,292,0.0,0.0,99,0.10,,,0.20,1.000000,,2013-07-21 03:57:00,
2013-07-20 21:01:00,69.0,69.0,-100.00,WNW,292,0.0,0.0,99,0.10,,,0.20,1.000000,,2013-07-21 04:01:00,
2013-07-20 21:32:00,66.0,66.0,-100.00,West,267,0.0,0.0,100,0.20,,,0.40,0.000000,,2013-07-21 04:32:00,
2013-07-20 21:43:00,66.0,66.0,-100.00,West,267,0.0,0.0,100,0.20,,,0.40,0.000000,,2013-07-21 04:43:00,
2013-07-20 21:53:00,66.0,66.0,-100.00,West,267,0.0,0.0,100,0.20,,,0.40,0.000000,,2013-07-21 04:53:00,
2013-07-20 22:01:00,66.0,66.0,-100.00,West,267,0.0,0.0,100,0.20,,,0.40,0.000000,,2013-07-21 05:01:00,
2013-07-20 22:32:00,65.0,65.0,-100.00,NW,326,0.0,0.0,100,0.00,,,0.30,0.000000,,2013-07-21 05:32:00,
2013-07-20 22:42:00,65.0,65.0,-100.00,NW,326,0.0,0.0,100,0.00,,,0.30,0.000000,,2013-07-21 05:42:00,
2013-07-20 22:52:00,65.0,65.0,-100.00,NW,326,0.0,0.0,100,0.00,,,0.30,0.000000,,2013-07-21 05:52:00,
2013-07-20 23:01:00,65.0,65.0,-100.00,NW,326,0.0,0.0,100,0.00,,,0.30,0.000000,,2013-07-21 06:01:00,
2013-07-20 23:32:00,63.0,63.0,-100.00,NNW,336,0.0,0.0,100,0.10,,,0.40,0.000000,,2013-07-21 06:32:00,
2013-07-20 23:43:00,63.0,63.0,-100.00,NNW,336,0.0,0.0,100,0.10,,,0.40,0.000000,,2013-07-21 06:43:00,
2013-07-20 23:52:00,63.0,63.0,-100.00,NNW,336,0.0,0.0,100,0.10,,,0.40,0.000000,,2013-07-21 06:52:00,